Time;durP1;ratioP1;P1;durP2;ratioP2;P2;SDS_P1;SDS_P2;PMS_P1;PMS_P2;Temp;Humidity;BMP_temperature;BMP_pressure;BME280_temperature;BME280_humidity;BME280_pressure;Samples;Min_cycle;Max_cycle;Signal;HPM_P1;HPM_P2
2022/03/16 00:00:28;;;;;;;;;;;15.00;54.30;;;;;;5094300;28;19935;-68
2022/03/16 00:02:55;;;;;;;;;;;15.00;54.30;;;;;;5075955;28;19924;-68
2022/03/16 00:05:21;;;;;;;;;;;15.00;54.30;;;;;;5075539;28;19924;-70
2022/03/16 00:07:48;;;;;;;;;;;15.00;54.40;;;;;;5093139;28;19924;-70
2022/03/16 00:10:14;;;;;;;;;;;15.00;54.40;;;;;;5075612;28;20007;-70
2022/03/16 00:12:42;;;;;;;;;;;15.00;54.40;;;;;;5093650;28;19924;-71
2022/03/16 00:15:09;;;;;;;;;;;15.00;54.40;;;;;;5093978;28;19928;-71
2022/03/16 00:17:36;;;;;;;;;;;15.00;54.40;;;;;;5093532;28;19924;-70
2022/03/16 00:20:03;;;;;;;;;;;14.90;54.30;;;;;;5075696;28;19930;-70
2022/03/16 00:22:30;;;;;;;;;;;14.90;54.30;;;;;;5075344;28;19924;-70
2022/03/16 00:24:56;;;;;;;;;;;14.90;54.30;;;;;;5075664;28;19924;-70
2022/03/16 00:27:23;;;;;;;;;;;14.90;54.30;;;;;;5093581;28;19931;-70
2022/03/16 00:29:51;;;;;;;;;;;14.90;54.40;;;;;;5093445;28;19931;-70
2022/03/16 00:32:17;;;;;;;;;;;14.90;54.40;;;;;;5074979;28;19924;-70
2022/03/16 00:34:44;;;;;;;;;;;14.90;54.40;;;;;;5093113;28;20376;-70
2022/03/16 00:37:11;;;;;;;;;;;14.80;54.30;;;;;;5075227;28;19924;-70
2022/03/16 00:39:38;;;;;;;;;;;14.90;54.40;;;;;;5075454;28;19930;-70
2022/03/16 00:42:05;;;;;;;;;;;14.90;54.40;;;;;;5075251;28;19931;-70
2022/03/16 00:44:34;;;;;;;;;;;14.80;54.30;;;;;;5092987;28;20287;-70
2022/03/16 00:47:03;;;;;;;;;;;14.90;54.30;;;;;;5093414;28;20010;-70
2022/03/16 00:49:29;;;;;;;;;;;14.80;54.30;;;;;;5074769;28;19928;-70
2022/03/16 00:51:56;;;;;;;;;;;14.80;54.30;;;;;;5075047;28;19924;-70
2022/03/16 00:54:22;;;;;;;;;;;14.80;54.30;;;;;;5074968;28;19930;-70
2022/03/16 00:56:49;;;;;;;;;;;14.80;54.30;;;;;;5092826;28;19924;-69
2022/03/16 00:59:15;;;;;;;;;;;14.80;54.30;;;;;;5075112;28;19924;-70
2022/03/16 01:01:42;;;;;;;;;;;14.70;54.30;;;;;;5092755;28;19925;-71
2022/03/16 01:04:10;;;;;;;;;;;14.70;54.30;;;;;;5092693;28;19924;-70
2022/03/16 01:06:36;;;;;;;;;;;14.70;54.30;;;;;;5075014;28;20369;-70
2022/03/16 01:09:03;;;;;;;;;;;14.70;54.30;;;;;;5092950;28;19947;-70
2022/03/16 01:11:29;;;;;;;;;;;14.70;54.30;;;;;;5092715;28;19950;-70
2022/03/16 01:13:56;;;;;;;;;;;14.70;54.30;;;;;;5092700;28;19927;-70
2022/03/16 01:16:22;;;;;;;;;;;14.70;54.30;;;;;;5092547;28;19924;-70
2022/03/16 01:18:49;;;;;;;;;;;14.70;54.30;;;;;;5073810;28;19924;-70
2022/03/16 01:21:17;;;;;;;;;;;14.70;54.30;;;;;;5092714;28;19924;-68
2022/03/16 01:23:43;;;;;;;;;;;14.70;54.30;;;;;;5074613;28;19925;-70
2022/03/16 01:26:10;;;;;;;;;;;14.70;54.30;;;;;;5074742;28;19928;-70
2022/03/16 01:28:36;;;;;;;;;;;14.70;54.20;;;;;;5092538;28;20486;-70
2022/03/16 01:31:03;;;;;;;;;;;14.70;54.20;;;;;;5092104;28;20315;-70
2022/03/16 01:33:30;;;;;;;;;;;14.70;54.20;;;;;;5091921;28;20619;-70
2022/03/16 01:35:56;;;;;;;;;;;14.70;54.10;;;;;;5092627;28;19930;-68
2022/03/16 01:38:24;;;;;;;;;;;14.70;54.20;;;;;;5092470;28;20398;-69
2022/03/16 01:40:51;;;;;;;;;;;14.70;54.20;;;;;;5092477;28;20384;-68
2022/03/16 01:43:17;;;;;;;;;;;14.70;54.20;;;;;;5074054;28;20303;-68
2022/03/16 01:45:45;;;;;;;;;;;14.70;54.10;;;;;;5074168;28;20291;-68
2022/03/16 01:48:12;;;;;;;;;;;14.70;54.10;;;;;;5092422;28;19925;-68
2022/03/16 01:50:38;;;;;;;;;;;14.70;54.10;;;;;;5074261;28;19939;-69
2022/03/16 01:53:05;;;;;;;;;;;14.80;54.10;;;;;;5073987;28;19931;-69
2022/03/16 01:55:33;;;;;;;;;;;14.80;54.00;;;;;;5073961;28;19931;-68
2022/03/16 01:57:59;;;;;;;;;;;14.80;54.00;;;;;;5092330;28;19931;-68
2022/03/16 02:00:26;;;;;;;;;;;14.80;53.90;;;;;;5074313;28;19932;-68
2022/03/16 02:02:52;;;;;;;;;;;14.80;53.90;;;;;;5092105;28;19924;-68
2022/03/16 02:05:19;;;;;;;;;;;14.80;53.90;;;;;;5074327;28;19924;-69
2022/03/16 02:07:45;;;;;;;;;;;14.80;53.80;;;;;;5074178;28;19924;-69
2022/03/16 02:10:12;;;;;;;;;;;14.80;53.70;;;;;;5092372;28;19924;-68
2022/03/16 02:12:44;;;;;;;;;;;14.90;53.70;;;;;;5092027;28;19931;-68
2022/03/16 02:15:10;;;;;;;;;;;14.90;53.70;;;;;;5092118;28;19935;-68
2022/03/16 02:17:37;;;;;;;;;;;14.90;53.80;;;;;;5091906;28;20403;-69
2022/03/16 02:20:05;;;;;;;;;;;14.90;53.70;;;;;;5092143;28;19924;-68
2022/03/16 02:22:31;;;;;;;;;;;14.90;53.70;;;;;;5073742;28;19931;-69
2022/03/16 02:24:59;;;;;;;;;;;14.90;53.70;;;;;;5092255;28;19924;-68
2022/03/16 02:27:26;;;;;;;;;;;14.90;53.70;;;;;;5092086;28;19924;-69
2022/03/16 02:29:52;;;;;;;;;;;14.90;53.60;;;;;;5093303;28;19931;-68
2022/03/16 02:32:19;;;;;;;;;;;14.90;53.70;;;;;;5077352;28;19930;-68
2022/03/16 02:34:46;;;;;;;;;;;14.90;53.70;;;;;;5077769;28;19928;-68
2022/03/16 02:37:12;;;;;;;;;;;14.90;53.60;;;;;;5077816;28;19928;-69
2022/03/16 02:39:39;;;;;;;;;;;14.90;53.60;;;;;;5095691;28;19924;-68
2022/03/16 02:42:08;;;;;;;;;;;14.90;53.60;;;;;;5077737;28;19924;-68
2022/03/16 02:44:34;;;;;;;;;;;14.90;53.60;;;;;;5076634;28;20576;-69
2022/03/16 02:47:01;;;;;;;;;;;14.90;53.60;;;;;;5077407;28;20295;-68
2022/03/16 02:49:28;;;;;;;;;;;14.90;53.70;;;;;;5095258;28;19924;-68
2022/03/16 02:51:55;;;;;;;;;;;14.90;53.60;;;;;;5076990;28;19924;-68
2022/03/16 02:54:22;;;;;;;;;;;14.90;53.60;;;;;;5095044;28;19924;-69
2022/03/16 02:56:48;;;;;;;;;;;14.90;53.60;;;;;;5077143;28;19928;-69
2022/03/16 02:59:16;;;;;;;;;;;14.90;53.50;;;;;;5077245;28;19924;-68
2022/03/16 03:01:43;;;;;;;;;;;14.90;53.60;;;;;;5095215;28;19924;-68
2022/03/16 03:04:10;;;;;;;;;;;14.90;53.50;;;;;;5094582;28;20384;-68
2022/03/16 03:06:36;;;;;;;;;;;15.00;53.60;;;;;;5095052;28;20301;-69
2022/03/16 03:09:03;;;;;;;;;;;15.00;53.50;;;;;;5095153;28;20039;-71
2022/03/16 03:11:29;;;;;;;;;;;15.00;53.50;;;;;;5076972;28;19931;-70
2022/03/16 03:13:56;;;;;;;;;;;15.00;53.60;;;;;;5076582;28;19931;-71
2022/03/16 03:16:24;;;;;;;;;;;15.00;54.20;;;;;;5076817;28;19930;-71
2022/03/16 03:18:50;;;;;;;;;;;15.00;53.60;;;;;;5095163;28;20339;-71
2022/03/16 03:21:17;;;;;;;;;;;15.00;53.50;;;;;;5076312;28;19967;-71
2022/03/16 03:23:43;;;;;;;;;;;15.00;53.60;;;;;;5076490;28;19924;-71
2022/03/16 03:26:10;;;;;;;;;;;15.00;53.50;;;;;;5076999;28;19931;-71
2022/03/16 03:28:36;;;;;;;;;;;15.00;53.50;;;;;;5094771;28;19925;-71
2022/03/16 03:31:03;;;;;;;;;;;15.00;53.50;;;;;;5076854;28;19924;-69
2022/03/16 03:33:31;;;;;;;;;;;15.00;53.50;;;;;;5075809;28;19924;-71
2022/03/16 03:35:58;;;;;;;;;;;15.00;53.50;;;;;;5076644;28;19931;-71
2022/03/16 03:38:24;;;;;;;;;;;15.00;53.50;;;;;;5094931;28;19930;-71
2022/03/16 03:40:51;;;;;;;;;;;15.00;53.40;;;;;;5094195;28;19928;-69
2022/03/16 03:43:18;;;;;;;;;;;15.00;53.40;;;;;;5076066;28;19938;-71
2022/03/16 03:45:44;;;;;;;;;;;15.00;53.40;;;;;;5076378;28;19924;-70
2022/03/16 03:48:11;;;;;;;;;;;15.00;53.40;;;;;;5094177;28;19928;-71
2022/03/16 03:50:39;;;;;;;;;;;15.00;53.40;;;;;;5094445;28;19924;-71
2022/03/16 03:53:05;;;;;;;;;;;15.00;53.40;;;;;;5076113;28;19930;-71
2022/03/16 03:55:32;;;;;;;;;;;15.00;53.40;;;;;;5076123;28;19931;-69
2022/03/16 03:57:58;;;;;;;;;;;15.00;53.40;;;;;;5076233;28;19924;-71
2022/03/16 04:00:25;;;;;;;;;;;15.00;53.40;;;;;;5076047;28;19923;-71
2022/03/16 04:02:51;;;;;;;;;;;15.00;53.40;;;;;;5075687;28;19933;-71
2022/03/16 04:05:18;;;;;;;;;;;15.00;53.40;;;;;;5075861;28;19931;-70
2022/03/16 04:07:48;;;;;;;;;;;15.00;53.40;;;;;;5094003;28;19924;-71
2022/03/16 04:10:14;;;;;;;;;;;15.00;53.40;;;;;;5094183;28;19931;-71
2022/03/16 04:12:41;;;;;;;;;;;15.00;53.40;;;;;;5093517;28;19935;-71
2022/03/16 04:15:08;;;;;;;;;;;15.00;53.40;;;;;;5075657;28;20428;-71
2022/03/16 04:17:34;;;;;;;;;;;15.00;53.40;;;;;;5075766;28;19924;-69
2022/03/16 04:20:01;;;;;;;;;;;15.00;53.40;;;;;;5075866;28;19928;-70
2022/03/16 04:22:27;;;;;;;;;;;15.00;53.40;;;;;;5075636;28;19924;-71
2022/03/16 04:24:55;;;;;;;;;;;15.00;53.30;;;;;;5075584;28;20299;-71
2022/03/16 04:27:22;;;;;;;;;;;15.00;53.30;;;;;;5075534;28;19931;-71
2022/03/16 04:29:48;;;;;;;;;;;15.00;53.90;;;;;;5093500;28;19928;-71
2022/03/16 04:32:15;;;;;;;;;;;15.00;53.30;;;;;;5075482;28;19924;-70
2022/03/16 04:34:41;;;;;;;;;;;15.00;53.30;;;;;;5075112;28;20403;-71
2022/03/16 04:37:08;;;;;;;;;;;15.00;53.30;;;;;;5075585;28;20387;-71
2022/03/16 04:39:35;;;;;;;;;;;15.00;53.20;;;;;;5093230;28;20425;-71
2022/03/16 04:42:03;;;;;;;;;;;15.00;53.20;;;;;;5092907;28;19981;-71
2022/03/16 04:44:29;;;;;;;;;;;15.00;53.10;;;;;;5092947;28;19931;-71
2022/03/16 04:46:56;;;;;;;;;;;14.90;53.10;;;;;;5075360;28;19924;-71
2022/03/16 04:49:22;;;;;;;;;;;15.00;53.20;;;;;;5075326;28;19923;-71
2022/03/16 04:51:49;;;;;;;;;;;14.90;53.10;;;;;;5093162;28;19947;-70
2022/03/16 04:54:16;;;;;;;;;;;14.90;53.10;;;;;;5091883;28;19931;-70
2022/03/16 04:56:43;;;;;;;;;;;14.90;53.00;;;;;;5058527;28;19924;-71
2022/03/16 04:59:11;;;;;;;;;;;14.90;53.00;;;;;;5093181;28;19924;-70
2022/03/16 05:01:37;;;;;;;;;;;14.90;53.00;;;;;;5093251;28;19946;-69
2022/03/16 05:04:04;;;;;;;;;;;14.90;53.10;;;;;;5092443;28;20002;-70
2022/03/16 05:06:31;;;;;;;;;;;14.90;53.10;;;;;;5075103;28;19924;-71
2022/03/16 05:08:57;;;;;;;;;;;14.90;53.00;;;;;;5092404;28;19924;-71
2022/03/16 05:11:24;;;;;;;;;;;14.90;53.00;;;;;;5074813;28;19924;-70
2022/03/16 05:13:51;;;;;;;;;;;14.90;53.00;;;;;;5074364;28;19924;-71
2022/03/16 05:16:19;;;;;;;;;;;14.90;53.00;;;;;;5074827;28;19924;-71
2022/03/16 05:18:45;;;;;;;;;;;14.90;53.10;;;;;;5074677;28;19924;-71
2022/03/16 05:21:12;;;;;;;;;;;14.90;53.10;;;;;;5092732;28;19975;-69
2022/03/16 05:23:40;;;;;;;;;;;14.90;53.10;;;;;;5074376;28;19924;-71
2022/03/16 05:26:06;;;;;;;;;;;14.90;53.00;;;;;;5074664;28;19975;-71
2022/03/16 05:28:33;;;;;;;;;;;14.90;53.00;;;;;;5074845;28;19924;-71
2022/03/16 05:31:00;;;;;;;;;;;14.90;53.00;;;;;;5092606;28;19978;-71
2022/03/16 05:33:27;;;;;;;;;;;14.90;53.10;;;;;;5092257;28;19924;-69
2022/03/16 05:35:54;;;;;;;;;;;14.90;53.00;;;;;;5074191;28;20392;-69
2022/03/16 05:38:21;;;;;;;;;;;14.90;53.10;;;;;;5092516;28;19930;-70
2022/03/16 05:40:48;;;;;;;;;;;14.90;53.00;;;;;;5074425;28;19928;-71
2022/03/16 05:43:14;;;;;;;;;;;14.90;53.00;;;;;;5092352;28;20467;-71
2022/03/16 05:45:41;;;;;;;;;;;14.90;53.00;;;;;;5092505;28;20295;-70
2022/03/16 05:48:07;;;;;;;;;;;14.90;53.00;;;;;;5092468;28;19923;-71
2022/03/16 05:50:38;;;;;;;;;;;14.90;53.00;;;;;;5092260;28;19947;-70
2022/03/16 05:53:05;;;;;;;;;;;14.90;52.90;;;;;;5091707;28;20403;-69
2022/03/16 05:55:31;;;;;;;;;;;14.90;52.90;;;;;;5092323;28;19928;-70
2022/03/16 05:57:58;;;;;;;;;;;14.90;53.00;;;;;;5092544;28;19924;-71
2022/03/16 06:00:24;;;;;;;;;;;14.90;52.90;;;;;;5092404;28;19924;-71
2022/03/16 06:02:51;;;;;;;;;;;14.90;53.00;;;;;;5073809;28;19927;-71
2022/03/16 06:05:18;;;;;;;;;;;14.90;53.00;;;;;;5059630;28;19949;-71
2022/03/16 06:07:45;;;;;;;;;;;14.90;53.00;;;;;;5078479;28;19924;-71
2022/03/16 06:10:14;;;;;;;;;;;14.90;53.00;;;;;;5096552;28;20018;-70
2022/03/16 06:12:50;;;;;;;;;;;14.90;52.90;;;;;;5095886;28;19924;-71
2022/03/16 06:15:16;;;;;;;;;;;14.90;53.00;;;;;;5077966;28;19947;-71
2022/03/16 06:17:43;;;;;;;;;;;14.90;53.00;;;;;;5095961;28;20311;-70
2022/03/16 06:20:10;;;;;;;;;;;14.90;53.00;;;;;;5096068;28;20273;-70
2022/03/16 06:22:37;;;;;;;;;;;14.90;53.00;;;;;;5077865;28;19924;-70
2022/03/16 06:25:05;;;;;;;;;;;14.90;52.90;;;;;;5095960;28;19924;-69
2022/03/16 06:27:32;;;;;;;;;;;14.90;52.90;;;;;;5078014;28;19928;-70
2022/03/16 06:29:58;;;;;;;;;;;14.90;52.80;;;;;;5095917;28;19924;-70
2022/03/16 06:32:25;;;;;;;;;;;14.90;52.90;;;;;;5073910;28;19925;-70
2022/03/16 06:34:51;;;;;;;;;;;14.90;52.90;;;;;;5075581;28;19929;-70
2022/03/16 06:37:18;;;;;;;;;;;14.90;52.90;;;;;;5075619;28;19930;-69
2022/03/16 06:39:44;;;;;;;;;;;14.90;52.80;;;;;;5075431;28;19924;-70
2022/03/16 06:42:12;;;;;;;;;;;14.90;52.80;;;;;;5075450;28;19928;-70
2022/03/16 06:44:39;;;;;;;;;;;14.90;52.80;;;;;;5083834;28;19924;-70
2022/03/16 06:47:06;;;;;;;;;;;14.90;52.80;;;;;;5095555;28;20300;-70
2022/03/16 06:49:32;;;;;;;;;;;14.90;52.80;;;;;;5077162;28;20308;-70
2022/03/16 06:51:59;;;;;;;;;;;14.90;52.80;;;;;;5095539;28;20296;-70
2022/03/16 06:54:26;;;;;;;;;;;14.90;52.80;;;;;;5077030;28;20269;-68
2022/03/16 06:56:52;;;;;;;;;;;14.90;52.80;;;;;;5077215;28;19934;-70
2022/03/16 06:59:21;;;;;;;;;;;14.90;52.80;;;;;;5077162;28;19924;-68
2022/03/16 07:01:47;;;;;;;;;;;14.90;52.80;;;;;;5095357;28;19928;-68
2022/03/16 07:04:14;;;;;;;;;;;14.90;52.90;;;;;;5094949;28;19924;-68
2022/03/16 07:06:40;;;;;;;;;;;14.90;52.80;;;;;;5095437;28;19923;-68
2022/03/16 07:09:09;;;;;;;;;;;15.00;52.90;;;;;;5094307;28;21497;-68
2022/03/16 07:11:35;;;;;;;;;;;15.00;52.80;;;;;;5076806;28;19924;-69
2022/03/16 07:16:47;;;;;;;;;;;15.00;52.80;;;;;;5076256;28;19924;-68
2022/03/16 07:19:14;;;;;;;;;;;15.00;52.70;;;;;;5095228;28;19928;-68
2022/03/16 07:21:41;;;;;;;;;;;15.00;52.70;;;;;;5077040;28;19924;-68
2022/03/16 07:24:07;;;;;;;;;;;15.00;52.60;;;;;;5076600;28;20391;-68
2022/03/16 07:26:34;;;;;;;;;;;15.00;52.60;;;;;;5094446;28;20277;-68
2022/03/16 07:29:00;;;;;;;;;;;15.00;52.60;;;;;;5094792;28;20257;-71
2022/03/16 07:31:27;;;;;;;;;;;15.00;52.60;;;;;;5094987;28;20110;-71
2022/03/16 07:33:55;;;;;;;;;;;15.00;52.70;;;;;;5094403;28;19946;-71
2022/03/16 07:36:22;;;;;;;;;;;15.00;52.60;;;;;;5094851;28;19924;-71
2022/03/16 07:38:49;;;;;;;;;;;15.00;52.60;;;;;;5076241;28;19931;-71
2022/03/16 07:41:15;;;;;;;;;;;15.00;52.60;;;;;;5094509;28;20464;-71
2022/03/16 07:43:42;;;;;;;;;;;15.00;52.50;;;;;;5094475;28;20331;-70
2022/03/16 07:46:08;;;;;;;;;;;15.00;52.60;;;;;;5076544;28;19924;-71
2022/03/16 07:48:36;;;;;;;;;;;15.00;52.60;;;;;;5093962;28;20303;-71
2022/03/16 07:51:05;;;;;;;;;;;15.00;52.60;;;;;;5073381;28;19934;-71
2022/03/16 07:53:32;;;;;;;;;;;15.00;52.50;;;;;;5093883;28;19924;-70
2022/03/16 07:55:58;;;;;;;;;;;15.00;52.30;;;;;;5094144;28;20353;-71
2022/03/16 07:58:25;;;;;;;;;;;15.00;52.40;;;;;;5076287;28;20035;-71
2022/03/16 08:00:51;;;;;;;;;;;15.00;52.50;;;;;;5076248;28;20269;-71
2022/03/16 08:03:18;;;;;;;;;;;15.00;52.60;;;;;;5074655;28;19931;-70
2022/03/16 08:05:47;;;;;;;;;;;15.00;52.60;;;;;;5075417;28;19959;-70
2022/03/16 08:08:16;;;;;;;;;;;15.00;52.60;;;;;;5072902;28;19928;-71
2022/03/16 08:10:42;;;;;;;;;;;15.10;52.60;;;;;;5093641;28;19936;-70
2022/03/16 08:13:09;;;;;;;;;;;15.10;52.60;;;;;;5074660;28;19924;-70
2022/03/16 08:15:36;;;;;;;;;;;15.10;52.60;;;;;;5093495;28;19924;-70
2022/03/16 08:18:02;;;;;;;;;;;15.10;52.50;;;;;;5093360;28;19931;-71
2022/03/16 08:20:29;;;;;;;;;;;15.20;52.50;;;;;;5093284;28;19930;-70
2022/03/16 08:22:57;;;;;;;;;;;15.20;52.50;;;;;;5075192;28;19924;-70
2022/03/16 08:25:25;;;;;;;;;;;15.30;52.50;;;;;;5075697;28;19973;-71
2022/03/16 08:27:52;;;;;;;;;;;15.30;52.50;;;;;;5093364;28;19924;-71
2022/03/16 08:30:19;;;;;;;;;;;15.30;52.40;;;;;;5093112;28;19924;-69
2022/03/16 08:32:46;;;;;;;;;;;15.40;52.50;;;;;;5074784;28;20380;-70
2022/03/16 08:35:12;;;;;;;;;;;15.40;52.40;;;;;;5092694;28;20402;-70
2022/03/16 08:37:39;;;;;;;;;;;15.40;52.30;;;;;;5093105;28;20010;-69
2022/03/16 08:40:07;;;;;;;;;;;15.50;52.40;;;;;;5093286;28;20416;-70
2022/03/16 08:42:35;;;;;;;;;;;15.50;52.30;;;;;;5075103;28;19934;-69
2022/03/16 08:45:02;;;;;;;;;;;15.50;52.80;;;;;;5075346;28;19930;-70
2022/03/16 08:47:29;;;;;;;;;;;15.50;52.30;;;;;;5074626;28;20304;-70
2022/03/16 08:49:55;;;;;;;;;;;15.50;52.20;;;;;;5074478;28;19935;-70
2022/03/16 08:52:22;;;;;;;;;;;15.60;52.20;;;;;;5073342;28;19928;-69
2022/03/16 08:54:50;;;;;;;;;;;15.60;52.20;;;;;;5073897;28;19930;-70
2022/03/16 08:57:17;;;;;;;;;;;15.60;52.20;;;;;;5074667;28;19946;-69
2022/03/16 08:59:45;;;;;;;;;;;15.60;52.10;;;;;;5074390;28;20446;-68
2022/03/16 09:02:11;;;;;;;;;;;15.70;52.10;;;;;;5092329;28;20423;-68
2022/03/16 09:04:38;;;;;;;;;;;15.70;52.10;;;;;;5074374;28;19946;-68
2022/03/16 09:07:04;;;;;;;;;;;15.70;52.10;;;;;;5074485;28;19924;-68
2022/03/16 09:09:31;;;;;;;;;;;15.70;52.10;;;;;;5066499;28;19931;-68
2022/03/16 09:11:58;;;;;;;;;;;15.70;52.10;;;;;;5092933;28;19924;-68
2022/03/16 09:14:24;;;;;;;;;;;15.70;52.00;;;;;;5074502;28;19934;-68
2022/03/16 09:16:52;;;;;;;;;;;15.70;52.00;;;;;;5092749;28;19930;-68
2022/03/16 09:19:21;;;;;;;;;;;15.80;52.00;;;;;;5074877;28;20365;-69
2022/03/16 09:21:48;;;;;;;;;;;15.80;52.00;;;;;;5074612;28;19933;-70
2022/03/16 09:24:14;;;;;;;;;;;15.80;52.00;;;;;;5092170;28;19928;-69
2022/03/16 09:26:41;;;;;;;;;;;15.90;52.10;;;;;;5074798;28;19924;-70
2022/03/16 09:29:08;;;;;;;;;;;15.90;52.10;;;;;;5092369;28;20391;-70
2022/03/16 09:31:35;;;;;;;;;;;16.00;52.20;;;;;;5092774;28;20296;-70
2022/03/16 09:34:05;;;;;;;;;;;16.00;52.10;;;;;;5073806;28;20384;-70
2022/03/16 09:36:32;;;;;;;;;;;15.50;51.80;;;;;;5092295;28;19931;-69
2022/03/16 09:38:58;;;;;;;;;;;16.10;52.20;;;;;;5073843;28;19971;-70
2022/03/16 09:41:25;;;;;;;;;;;16.20;52.20;;;;;;5072793;28;19924;-71
2022/03/16 09:43:52;;;;;;;;;;;16.20;52.10;;;;;;5091857;28;19930;-70
2022/03/16 09:46:20;;;;;;;;;;;16.20;52.00;;;;;;5074553;28;20394;-69
2022/03/16 09:48:46;;;;;;;;;;;16.20;51.90;;;;;;5091754;28;19932;-71
2022/03/16 09:51:16;;;;;;;;;;;16.30;51.90;;;;;;5074131;28;19930;-70
2022/03/16 09:53:43;;;;;;;;;;;16.30;51.90;;;;;;5092048;28;20395;-71
2022/03/16 09:56:11;;;;;;;;;;;16.30;51.90;;;;;;5072735;28;19924;-71
2022/03/16 10:22:13;;;;;;;;;;;16.50;51.50;;;;;;5088734;28;20605;-71
2022/03/16 10:24:41;;;;;;;;;;;16.60;51.60;;;;;;5091499;28;20450;-71
2022/03/16 10:27:07;;;;;;;;;;;16.60;51.50;;;;;;5072855;28;20299;-71
2022/03/16 10:29:34;;;;;;;;;;;16.60;51.50;;;;;;5073801;28;19924;-71
2022/03/16 10:32:01;;;;;;;;;;;16.60;51.50;;;;;;5090574;28;19924;-70
2022/03/16 10:34:27;;;;;;;;;;;16.60;51.40;;;;;;5073714;28;19924;-71
2022/03/16 10:36:54;;;;;;;;;;;16.60;51.40;;;;;;5092157;28;19924;-70
2022/03/16 10:39:23;;;;;;;;;;;16.70;51.50;;;;;;5092005;28;19930;-69
2022/03/16 10:47:18;;;;;;;;;;;16.70;51.40;;;;;;5072065;28;19920;-71
2022/03/16 10:49:45;;;;;;;;;;;16.70;51.40;;;;;;5070074;28;19932;-68
2022/03/16 10:52:14;;;;;;;;;;;16.80;51.50;;;;;;5092891;28;19930;-71
2022/03/16 10:54:43;;;;;;;;;;;16.70;51.30;;;;;;5095042;28;19976;-70
2022/03/16 10:57:10;;;;;;;;;;;16.80;51.40;;;;;;5094670;28;19925;-70
2022/03/16 10:59:37;;;;;;;;;;;16.70;51.30;;;;;;5076907;28;19983;-71
2022/03/16 11:02:04;;;;;;;;;;;16.80;51.30;;;;;;5076367;28;19931;-70
2022/03/16 11:04:31;;;;;;;;;;;16.80;51.30;;;;;;5076780;28;19924;-69
2022/03/16 11:06:58;;;;;;;;;;;16.80;51.30;;;;;;5095646;28;20014;-70
2022/03/16 11:09:25;;;;;;;;;;;16.80;51.30;;;;;;5076854;28;19928;-71
2022/03/16 11:14:37;;;;;;;;;;;16.80;51.50;;;;;;5093957;28;19924;-69
2022/03/16 11:17:04;;;;;;;;;;;16.80;51.50;;;;;;5076492;28;19931;-69
2022/03/16 11:19:30;;;;;;;;;;;16.80;51.50;;;;;;5094433;28;19930;-70
2022/03/16 11:21:59;;;;;;;;;;;16.80;51.50;;;;;;5094187;28;20292;-70
2022/03/16 11:24:26;;;;;;;;;;;16.80;51.40;;;;;;5093826;28;20396;-70
2022/03/16 11:27:20;;;;;;;;;;;16.80;51.40;;;;;;5076342;28;19931;-70
2022/03/16 11:30:07;;;;;;;;;;;16.80;51.40;;;;;;5075089;28;19924;-70
2022/03/16 11:32:37;;;;;;;;;;;16.90;51.50;;;;;;5084658;28;19924;-69
2022/03/16 11:35:03;;;;;;;;;;;16.90;51.60;;;;;;5072379;28;19924;-71
2022/03/16 11:37:34;;;;;;;;;;;16.90;51.50;;;;;;5076137;28;20007;-70
2022/03/16 11:40:05;;;;;;;;;;;16.90;51.40;;;;;;5073235;28;19924;-70
2022/03/16 11:42:32;;;;;;;;;;;16.90;51.40;;;;;;5093630;28;19924;-68
2022/03/16 11:45:03;;;;;;;;;;;16.90;51.40;;;;;;5093396;28;19978;-70
2022/03/16 11:47:34;;;;;;;;;;;16.90;51.40;;;;;;5075802;28;19924;-71
2022/03/16 11:50:07;;;;;;;;;;;16.90;51.40;;;;;;5075999;28;19931;-71
2022/03/16 11:52:52;;;;;;;;;;;16.90;51.30;;;;;;5093236;28;19926;-71
2022/03/16 11:55:33;;;;;;;;;;;16.90;51.30;;;;;;5075578;28;19924;-70
2022/03/16 11:58:00;;;;;;;;;;;16.90;51.30;;;;;;5075826;28;20310;-71
2022/03/16 12:00:26;;;;;;;;;;;17.00;51.40;;;;;;5094242;28;19963;-69
2022/03/16 12:02:53;;;;;;;;;;;16.90;51.30;;;;;;5075444;28;20019;-71
2022/03/16 12:05:22;;;;;;;;;;;17.00;51.40;;;;;;5093308;28;19930;-71
2022/03/16 12:07:48;;;;;;;;;;;17.00;51.30;;;;;;5075356;28;19924;-71
2022/03/16 12:10:16;;;;;;;;;;;17.00;51.30;;;;;;5092625;28;19924;-71
2022/03/16 12:12:51;;;;;;;;;;;17.00;51.40;;;;;;5093101;28;20411;-72
2022/03/16 12:15:31;;;;;;;;;;;17.00;51.30;;;;;;5075150;28;19924;-71
2022/03/16 12:18:31;;;;;;;;;;;17.00;51.30;;;;;;5092227;28;19924;-71
2022/03/16 12:21:03;;;;;;;;;;;17.00;51.30;;;;;;5092101;28;19924;-71
2022/03/16 12:23:43;;;;;;;;;;;17.00;51.30;;;;;;5090508;28;19946;-71
2022/03/16 12:26:09;;;;;;;;;;;17.00;51.30;;;;;;5073123;28;20089;-71
2022/03/16 12:31:20;;;;;;;;;;;17.00;51.30;;;;;;5074304;28;19920;-71
2022/03/16 12:33:48;;;;;;;;;;;17.00;51.30;;;;;;5074675;28;19928;-71
2022/03/16 12:36:16;;;;;;;;;;;17.00;51.30;;;;;;5092956;28;19976;-71
2022/03/16 12:38:43;;;;;;;;;;;17.00;51.30;;;;;;5090555;28;19946;-71
2022/03/16 12:43:56;;;;;;;;;;;16.90;51.30;;;;;;5073723;28;20293;-71
2022/03/16 12:46:23;;;;;;;;;;;17.00;51.40;;;;;;5093503;28;20346;-70
2022/03/16 12:48:51;;;;;;;;;;;16.90;51.30;;;;;;5075686;28;19924;-72
2022/03/16 12:51:32;;;;;;;;;;;16.90;51.30;;;;;;5074810;28;19970;-70
2022/03/16 12:54:00;;;;;;;;;;;16.90;51.40;;;;;;5092584;28;20323;-71
2022/03/16 12:56:27;;;;;;;;;;;16.90;51.40;;;;;;5093111;28;19928;-70
2022/03/16 12:58:53;;;;;;;;;;;16.90;51.40;;;;;;5093186;28;19931;-70
2022/03/16 13:01:20;;;;;;;;;;;16.90;51.50;;;;;;5092805;28;19924;-70
2022/03/16 13:03:48;;;;;;;;;;;16.90;51.40;;;;;;5092377;28;19979;-70
2022/03/16 13:06:17;;;;;;;;;;;16.90;51.40;;;;;;5092822;28;20355;-70
2022/03/16 13:08:46;;;;;;;;;;;16.80;51.40;;;;;;5074922;28;19943;-70
2022/03/16 13:11:22;;;;;;;;;;;16.80;51.40;;;;;;5074770;28;19924;-70
2022/03/16 13:13:59;;;;;;;;;;;16.80;51.40;;;;;;5091804;28;19972;-70
2022/03/16 13:16:36;;;;;;;;;;;16.80;51.50;;;;;;5092162;28;20295;-70
2022/03/16 13:19:03;;;;;;;;;;;16.80;51.40;;;;;;5092858;28;19947;-70
2022/03/16 13:21:29;;;;;;;;;;;16.80;51.50;;;;;;5074676;28;20361;-70
2022/03/16 13:24:03;;;;;;;;;;;16.80;51.50;;;;;;5074206;28;19925;-70
2022/03/16 13:26:31;;;;;;;;;;;16.90;51.50;;;;;;5074592;28;20333;-70
2022/03/16 13:28:57;;;;;;;;;;;16.80;51.40;;;;;;5092404;28;20015;-69
2022/03/16 13:31:28;;;;;;;;;;;16.90;51.50;;;;;;5074527;28;19930;-70
2022/03/16 13:33:54;;;;;;;;;;;16.90;51.50;;;;;;5074090;28;19977;-70
2022/03/16 13:36:31;;;;;;;;;;;16.80;51.40;;;;;;5092186;28;20027;-68
2022/03/16 13:38:58;;;;;;;;;;;16.90;51.50;;;;;;5092577;28;19928;-70
2022/03/16 13:41:25;;;;;;;;;;;16.90;51.50;;;;;;5074282;28;19924;-70
2022/03/16 13:44:03;;;;;;;;;;;16.90;51.40;;;;;;5091232;28;20016;-70
2022/03/16 13:46:39;;;;;;;;;;;16.80;51.40;;;;;;5070858;28;19924;-69
2022/03/16 13:49:14;;;;;;;;;;;16.80;51.40;;;;;;5090647;28;19967;-69
2022/03/16 13:51:58;;;;;;;;;;;16.80;51.40;;;;;;5071870;28;19924;-70
2022/03/16 13:54:25;;;;;;;;;;;16.80;51.40;;;;;;5071427;28;19924;-70
2022/03/16 13:56:54;;;;;;;;;;;16.80;51.40;;;;;;5071062;28;20395;-69
2022/03/16 13:59:21;;;;;;;;;;;16.80;51.40;;;;;;5073813;28;19931;-69
2022/03/16 14:01:48;;;;;;;;;;;16.70;51.30;;;;;;5074081;28;19924;-70
2022/03/16 14:04:18;;;;;;;;;;;16.70;51.40;;;;;;5091521;28;19935;-69
2022/03/16 14:06:47;;;;;;;;;;;16.70;51.40;;;;;;5074117;28;19946;-70
2022/03/16 14:09:18;;;;;;;;;;;16.70;51.40;;;;;;5074277;28;19931;-67
2022/03/16 14:11:45;;;;;;;;;;;16.70;51.30;;;;;;5092269;28;19924;-68
2022/03/16 14:14:12;;;;;;;;;;;16.70;51.40;;;;;;5073495;28;20402;-69
2022/03/16 14:16:43;;;;;;;;;;;16.70;52.00;;;;;;5073914;28;19931;-69
2022/03/16 14:19:24;;;;;;;;;;;16.60;51.40;;;;;;5092389;28;20007;-69
2022/03/16 14:21:51;;;;;;;;;;;16.60;51.40;;;;;;5092010;28;20292;-68
2022/03/16 14:24:18;;;;;;;;;;;16.60;51.40;;;;;;5072922;28;20304;-69
2022/03/16 14:26:44;;;;;;;;;;;16.60;51.40;;;;;;5093850;28;20402;-68
2022/03/16 14:29:11;;;;;;;;;;;16.60;51.40;;;;;;5094949;28;20283;-69
2022/03/16 14:31:38;;;;;;;;;;;16.60;51.50;;;;;;5092324;28;20286;-70
2022/03/16 14:34:06;;;;;;;;;;;16.60;51.40;;;;;;5094832;28;20380;-68
2022/03/16 14:36:33;;;;;;;;;;;16.60;51.40;;;;;;5094958;28;20328;-70
2022/03/16 14:39:00;;;;;;;;;;;16.60;51.40;;;;;;5077202;28;20232;-69
2022/03/16 14:41:26;;;;;;;;;;;16.50;51.50;;;;;;5077668;28;20303;-70
2022/03/16 14:43:53;;;;;;;;;;;16.60;51.50;;;;;;5095197;28;20007;-69
2022/03/16 14:46:19;;;;;;;;;;;16.50;51.50;;;;;;5095358;28;19946;-69
2022/03/16 14:48:46;;;;;;;;;;;16.50;51.50;;;;;;5095292;28;19928;-70
2022/03/16 14:51:14;;;;;;;;;;;16.50;52.10;;;;;;5077055;28;19924;-70
2022/03/16 14:53:40;;;;;;;;;;;16.50;52.10;;;;;;5076613;28;20007;-69
2022/03/16 14:56:07;;;;;;;;;;;16.40;52.20;;;;;;5094028;28;19931;-70
2022/03/16 14:58:34;;;;;;;;;;;16.40;52.00;;;;;;5094186;28;19930;-69